Flight Track Log - Related Links

Times and Time Zones

All times are in EDT time to prevent confusion due to time zone crossing. See the AWI3778 flight status page for this flight to view local times or setup timezone preferences in your user account.

Time Position Orientation Groundspeed Altitude Reporting Facility
EDT Latitude Longitude Course Direction KTS MPH feet Rate Location/Type
Wed 11:45:29 AM 39.8667 -75.2667 37° Northeast 161 185 700  Level Philadelphia TRACON
Wed 11:45:55 AM 39.8500 -75.2894 226° Southwest 158 182 1,700 2,087 Climbing FAA TRACON SMA TRACON (SMA)
Wed 11:46:15 AM 39.8369 -75.3014 215° Southwest 181 208 2,300 2,250 Climbing FAA TRACON SMA TRACON (SMA)
Wed 11:46:35 AM 39.8239 -75.3136 216° Southwest 184 212 3,200 2,400 Climbing FAA TRACON SMA TRACON (SMA)
Wed 11:46:55 AM 39.8072 -75.3275 213° Southwest 187 215 3,900 1,950 Climbing FAA TRACON SMA TRACON (SMA)
Wed 11:47:15 AM 39.7931 -75.3353 203° Southwest 201 231 4,500 2,700 Climbing FAA TRACON SMA TRACON (SMA)
Wed 11:47:35 AM 39.7706 -75.3236 158° South 235 270 5,700 2,700 Climbing FAA TRACON SMA TRACON (SMA)
Wed 11:47:55 AM 39.7631 -75.3019 114° Southeast 231 266 6,300 1,650 Climbing FAA TRACON SMA TRACON (SMA)
Wed 11:48:15 AM 39.7611 -75.2733 95° East 256 295 6,800 1,500 Climbing FAA TRACON SMA TRACON (SMA)
Wed 11:48:35 AM 39.7636 -75.2353 85° East 285 328 7,300 1,350 Climbing FAA TRACON SMA TRACON (SMA)
Wed 11:48:55 AM 39.7661 -75.2031 84° East 288 331 7,700 1,650 Climbing FAA TRACON SMA TRACON (SMA)
Wed 11:49:00 AM 39.8038 -74.6796 37° Northeast  Level FlightAware Approximate
Wed 11:49:15 AM 39.7686 -75.1642 85° East 293 337 8,400  Level FAA TRACON SMA TRACON (SMA)
Wed 11:49:55 AM 39.7717 -75.0961 87° East 301 346 9,600 1,714 Climbing FAA TRACON SMA TRACON (SMA)
Wed 11:50:00 AM 39.8936 -74.5898 37° Northeast  Level FlightAware Approximate
Wed 11:50:18 AM 39.7736 -75.0542 87° East 309 356 10,200  Level FAA TRACON SMA TRACON (SMA)
Wed 11:50:55 AM 39.7781 -74.9786 86° East 341 392 11,200 1,684 Climbing FAA TRACON SMA TRACON (SMA)
Wed 11:51:15 AM 39.7811 -74.9303 85° East 349 402 11,800 1,200 Climbing FAA TRACON SMA TRACON (SMA)
Wed 11:51:35 AM 39.7831 -74.8897 86° East 360 414 12,000 300 Climbing FAA TRACON SMA TRACON (SMA)
Wed 11:51:55 AM 39.7858 -74.8494 85° East 371 427 12,000 154 Level FAA TRACON SMA TRACON (SMA)
Wed 11:52:14 AM 39.7883 -74.8081 85° East 379 436 12,100 1,231 Climbing FAA TRACON SMA TRACON (SMA)
Wed 11:52:34 AM 39.7917 -74.7531 85° East 383 441 12,800 1,800 Climbing FAA TRACON SMA TRACON (SMA)
Wed 11:52:54 AM 39.8036 -74.7142 68° East 384 442 13,300 1,200 Climbing FAA TRACON SMA TRACON (SMA)
Wed 11:53:14 AM 39.8236 -74.6856 48° Northeast 379 436 13,600 1,317 Climbing FAA TRACON SMA TRACON (SMA)
Wed 11:53:35 AM 39.8586 -74.6519 36° Northeast 372 428 14,200 1,610 Climbing FAA TRACON SMA TRACON (SMA)
Wed 11:53:55 AM 39.8850 -74.6267 36° Northeast 379 436 14,700 1,800 Climbing FAA TRACON SMA TRACON (SMA)
Wed 11:54:15 AM 39.9172 -74.5950 37° Northeast 377 434 15,400 1,650 Climbing FAA TRACON SMA TRACON (SMA)
Wed 11:54:35 AM 39.9408 -74.5731 35° Northeast 381 438 15,800 1,200 Climbing FAA TRACON SMA TRACON (SMA)
Wed 11:54:55 AM 39.9683 -74.5447 38° Northeast 381 438 16,200 1,500 Climbing FAA TRACON SMA TRACON (SMA)
Wed 11:55:15 AM 40.0025 -74.5114 37° Northeast 386 444 16,800 1,500 Climbing FAA TRACON SMA TRACON (SMA)
Wed 11:55:35 AM 40.0267 -74.4878 37° Northeast 388 447 17,200 1,200 Climbing FAA TRACON SMA TRACON (SMA)
Wed 11:55:55 AM 40.0564 -74.4589 37° Northeast 391 450 17,600 1,200 Climbing FAA TRACON SMA TRACON (SMA)
Wed 11:56:15 AM 40.0900 -74.4261 37° Northeast 393 452 18,000 400 Climbing FAA TRACON SMA TRACON (SMA)
Wed 11:56:55 AM 40.0900 -74.4261 270° West 393 452 18,000 1,297 Level FAA TRACON SMA TRACON (SMA)
Wed 11:57:29 AM 40.1850 -74.3328 37° Northeast 390 449 19,600 1,957 Climbing New York Center
Wed 11:58:27 AM 40.2708 -74.2503 36° Northeast 390 449 21,000 1,475 Climbing New York Center
Wed 11:59:27 AM 40.3567 -74.1619 38° Northeast 395 455 22,500 1,438 Climbing New York Center
Wed 12:00:28 PM 40.4561 -74.1069 23° Northeast 388 447 23,900 732 Climbing New York Center
Wed 12:02:52 PM 40.6894 -73.9619 25° Northeast 379 436 25,000 324 Climbing Boston Center
Wed 12:03:52 PM 40.7864 -73.8983 26° Northeast 379 436 25,000  Level Boston Center
Wed 12:04:52 PM 40.8850 -73.8375 25° Northeast 379 436 25,000  Level Boston Center
Wed 12:05:52 PM 40.9817 -73.7764 26° Northeast 385 443 25,000  Level Boston Center
Wed 12:06:52 PM 41.0842 -73.7344 17° North 380 437 25,000  Level Boston Center
Wed 12:07:52 PM 41.1886 -73.7172 North 375 432 25,000  Level Boston Center
Wed 12:08:52 PM 41.2950 -73.6972 North 375 432 25,000  Level Boston Center
Wed 12:09:52 PM 41.3994 -73.6797 North 375 432 25,000  Level Boston Center
Wed 12:11:00 PM 41.5061 -73.6636 North  Level FlightAware Approximate
Wed 12:11:52 PM 41.6144 -73.6478 North 375 432 25,000  Level Boston Center
Wed 12:12:52 PM 41.7208 -73.6306 North 369 425 25,000  Level Boston Center
Wed 12:13:52 PM 41.8211 -73.6156 North 369 425 25,000  Level Boston Center
Wed 12:14:52 PM 41.9256 -73.5953 North 369 425 25,000  Level Boston Center
Wed 12:15:52 PM 42.0300 -73.5806 North 369 425 25,000  Level Boston Center
Wed 12:16:52 PM 42.1281 -73.5597 North 375 432 25,000  Level Boston Center
Wed 12:17:52 PM 42.2347 -73.5392 North 375 432 25,000  Level Boston Center
Wed 12:18:52 PM 42.3431 -73.5300 North 375 432 25,000  Level Boston Center
Wed 12:19:52 PM 42.4494 -73.5122 North 369 425 25,000  Level Boston Center
Wed 12:20:52 PM 42.5539 -73.4914 North 369 425 25,000  Level Boston Center
Wed 12:21:52 PM 42.6583 -73.4733 North 369 425 25,000  Level Boston Center
Wed 12:22:52 PM 42.7647 -73.4583 North 369 425 25,000  Level Boston Center
Wed 12:23:52 PM 42.8483 -73.4425 North 374 430 25,000 -250 Level Boston Center
Wed 12:24:52 PM 42.9611 -73.4189 North 369 425 24,500 -500 Descending Boston Center
Wed 12:25:52 PM 43.0675 -73.4006 North 369 425 24,000 -250 Descending Boston Center
Wed 12:26:52 PM 43.1844 -73.3797 North 374 430 24,000  Level Boston Center
Wed 12:27:52 PM 43.2928 -73.3642 North 374 430 24,000  Level Boston Center
Wed 12:28:52 PM 43.3992 -73.3486 North 386 444 24,000 -300 Level Boston Center
Wed 12:29:52 PM 43.4975 -73.3017 19° North 381 438 23,400 -1,600 Descending Boston Center
Wed 12:30:52 PM 43.5981 -73.2486 21° North 375 432 20,800 -2,650 Descending Boston Center
Wed 12:31:52 PM 43.7003 -73.2011 19° North 386 444 18,100 -2,250 Descending Boston Center
Wed 12:32:52 PM 43.8025 -73.1936 North 375 432 16,300 -2,050 Descending Boston Center
Wed 12:33:52 PM 43.8983 -73.1892 North 356 410 14,000 -2,150 Descending Boston Center
Wed 12:34:52 PM 43.9900 -73.1844 North 338 389 12,000 -1,850 Descending Boston Center
Wed 12:35:52 PM 44.0775 -73.1886 358° North 320 368 10,300 -1,800 Descending Boston Center
Wed 12:36:52 PM 44.1586 -73.2097 349° North 307 353 8,400 -1,900 Descending Boston Center
Wed 12:37:52 PM 44.2378 -73.2311 349° North 290 334 6,500 -1,950 Descending Boston Center
Wed 12:38:52 PM 44.3044 -73.2494 349° North 285 328 4,500 -1,200 Descending Boston Center
Wed 12:39:52 PM 44.3750 -73.2678 349° North 263 303 4,100 -700 Descending Boston Center
Wed 12:40:52 PM 44.4333 -73.2803 351° North 224 258 3,100 -1,000 Descending Boston Center

Login

Don't have an account? Register now (free) for customized features, flight alerts, and more!